CheckWX is a tool to help pilots better visualize weather data.  It is not intended as a substitute for an official pre-flight weather briefing.

06:36:49 UTC

SKBQ METAR
Ernesto Cortissoz International Airport
Barranquilla, Colombia
Current

37 mins ago

SKBQ 070600Z 36007KT 320V030 9999 FEW012 SCT080 27/25 A2982 NOSIG
Observed
Apr-7 @ 06:00 UTC
Wind
  • 360° at 7 KTS
Visibility
10,000+ meters
Flight Rules
VFR
Cloud Levels
  • Few at 1,200' AGL
  • Scattered at 8,000' AGL
Temperature
27°C / 81°F
Dewpoint
25°C / 77°F
Humidity
89%
Altimeter
29.82" Hg
Pressure
1009.82 hPa
Previous

2 hours ago

SKBQ 070500Z 36012KT 9999 FEW012 SCT080 28/25 A2983 NOSIG
Observed
Apr-7 @ 05:00 UTC
Wind
  • 360° at 12 KTS
Visibility
10,000+ meters
Flight Rules
VFR
Cloud Levels
  • Few at 1,200' AGL
  • Scattered at 8,000' AGL
Temperature
28°C / 82°F
Dewpoint
25°C / 77°F
Humidity
84%
Altimeter
29.83" Hg
Pressure
1010.12 hPa
Previous

3 hours ago

SKBQ 070400Z 36012KT 9999 SCT012 27/25 A2984 NOSIG
Observed
Apr-7 @ 04:00 UTC
Wind
  • 360° at 12 KTS
Visibility
10,000+ meters
Flight Rules
VFR
Cloud Levels
  • Scattered at 1,200' AGL
Temperature
27°C / 81°F
Dewpoint
25°C / 77°F
Humidity
89%
Altimeter
29.84" Hg
Pressure
1010.52 hPa